Observations for ALICANTE EL ALTET, Spain (LEAL)

LEAL 240900Z 09008KT 060V140 CAVOK 27/13 Q1014 NOSIG
LEAL 240830Z 09006KT 030V140 CAVOK 26/14 Q1014 NOSIG
LEAL 240800Z 09006KT 060V120 CAVOK 26/14 Q1014 NOSIG
LEAL 240730Z VRB02KT CAVOK 26/14 Q1013 NOSIG
LEAL 240700Z VRB02KT CAVOK 25/14 Q1013 NOSIG
LEAL 240630Z 26003KT CAVOK 23/12 Q1013 NOSIG
LEAL 240600Z 26003KT CAVOK 20/12 Q1013 NOSIG
LEAL 240530Z 20003KT 160V250 CAVOK 19/11 Q1013 NOSIG
LEAL 240500Z 21004KT 160V240 CAVOK 18/10 Q1013 NOSIG
LEAL 240430Z 24005KT CAVOK 18/10 Q1012 NOSIG
LEAL 240400Z 28003KT CAVOK 19/09 Q1012 NOSIG
LEAL 240330Z 28003KT CAVOK 19/09 Q1012 NOSIG
LEAL 240300Z 29003KT CAVOK 20/09 Q1012 NOSIG
LEAL 240230Z 29004KT CAVOK 20/09 Q1012 NOSIG
LEAL 240200Z 28006KT CAVOK 20/09 Q1012 NOSIG
LEAL 240130Z 29004KT CAVOK 19/10 Q1013 NOSIG
LEAL 240100Z 28003KT CAVOK 19/10 Q1013 NOSIG
LEAL 240030Z VRB02KT CAVOK 21/10 Q1013 NOSIG
LEAL 240000Z 01006KT CAVOK 23/09 Q1013 NOSIG
LEAL 232330Z 03003KT 350V060 CAVOK 23/11 Q1013 NOSIG
LEAL 232300Z 02004KT 350V050 CAVOK 24/11 Q1014 NOSIG
LEAL 232230Z 36005KT CAVOK 24/13 Q1014 NOSIG
LEAL 232200Z 01005KT 340V060 CAVOK 24/14 Q1014 NOSIG
LEAL 232130Z 36005KT 310V080 CAVOK 24/14 Q1014 NOSIG
LEAL 232100Z 01004KT 330V060 CAVOK 24/15 Q1014 NOSIG
LEAL 232030Z 03005KT 350V060 CAVOK 24/15 Q1014 NOSIG
LEAL 232000Z 06006KT 020V080 CAVOK 24/16 Q1014 NOSIG
LEAL 231930Z 06007KT CAVOK 24/17 Q1013 NOSIG
LEAL 231900Z 06009KT 040V100 CAVOK 24/18 Q1013 NOSIG
LEAL 231830Z 07010KT CAVOK 24/19 Q1013 NOSIG
LEAL 231800Z 07011KT CAVOK 24/19 Q1013 NOSIG
LEAL 231730Z 08012KT CAVOK 25/19 Q1012 NOSIG
LEAL 231700Z 08011KT 050V110 CAVOK 25/18 Q1012 NOSIG
LEAL 231630Z 08012KT 060V120 CAVOK 25/19 Q1012 NOSIG
LEAL 231600Z 07011KT 050V110 CAVOK 25/18 Q1012 NOSIG
LEAL 231530Z 08011KT CAVOK 25/18 Q1013 NOSIG
LEAL 231500Z 08010KT 040V110 CAVOK 25/17 Q1013 NOSIG
LEAL 231430Z 08011KT CAVOK 26/17 Q1013 NOSIG
LEAL 231400Z 08011KT 050V110 CAVOK 26/16 Q1014 NOSIG
LEAL 231330Z 08011KT 050V110 CAVOK 25/16 Q1014 NOSIG
LEAL 231300Z 07010KT 050V110 CAVOK 26/17 Q1014 NOSIG
LEAL 231230Z 08008KT 050V110 9999 FEW008 26/17 Q1014 NOSIG  
LEAL 231200Z 10009KT 070V130 9999 FEW008 25/17 Q1014 NOSIG  
LEAL 231130Z 09009KT 060V120 9999 FEW008 25/18 Q1015 NOSIG  
LEAL 231100Z 09007KT 050V140 CAVOK 25/18 Q1015 NOSIG
LEAL 231030Z 10007KT 050V140 9999 FEW012 25/18 Q1015 NOSIG  
LEAL 231000Z 08006KT 350V130 9999 FEW012 25/18 Q1015 NOSIG  
LEAL 230930Z 10007KT 050V150 9999 FEW012 25/18 Q1015 NOSIG  
LEAL 230900Z 09005KT 050V130 9999 FEW012 24/18 Q1015 NOSIG  
LEAL 230830Z 08005KT 030V170 9999 SCT012 24/19 Q1015 NOSIG